Latest Coastal Weather Observations for Cerberus

IDV60701

Issued at 3:02 pm EDT Thursday 8 December 2016 (issued every 10 minutes, with the page automatically refreshed every 10 minutes)

About coastal observations | Map of coastal stations | Coastal observations for VIC | Marine services | Other Formats
Station Details ID: 086361 Name: CERBERUS Lat: -38.36 Lon: 145.18 Height: 12.69 m
Data from the previous 72 hours. | See also: Recent months at Cerberus
Date/Time
EDT
Temp
°C
Wind Pressure Rain since
9am
mm
Weather Cloud Vis
km
Sea
Height
m
Swell
Dir  Spd
kts
Gust
kts
hPa Trend Height
m
Period
s
Dir
08/02:30pm 21.1 W 18 33 996.7 - 4.8 - - - - - - -
08/02:07pm 21.5 WNW 16 31 996.5 - 4.8 - - - - - - -
08/02:00pm 20.5 W 16 26 996.4 - 4.8 - - - - - - -
08/01:30pm 20.7 WNW 20 33 996.2 - 4.8 - - - - - - -
08/01:00pm 18.9 WNW 15 26 996.5 - 4.8 - - - - - - -
08/12:57pm 18.7 WNW 15 26 996.6 - 4.8 - - - - - - -
08/12:30pm 17.3 WNW 11 18 996.9 - 4.8 - - - - - - -
08/12:00pm 15.6 WNW 11 19 996.9 - 4.8 - - - - - - -
08/11:30am 15.9 WNW 13 23 996.7 - 4.8 - - - - - - -
08/11:00am 15.1 NW 12 21 996.6 - 4.8 - - - - - - -
08/10:39am 16.6 NW 14 35 996.5 - 3.8 - - - - - - -
08/10:30am 18.2 NNW 14 28 995.3 - 3.2 - - - - - - -
08/10:00am 17.6 N 11 19 995.0 - 3.2 - - - - - - -
08/09:30am 17.0 N 10 18 996.0 - 3.0 - - - - - - -
08/09:00am 16.6 N 9 17 996.5 - 10.8 Rain - - - - - -
08/08:30am 16.4 N 8 15 996.5 - 8.6 - - - - - - -
08/08:00am 16.4 N 8 15 997.3 - 7.2 - - - - - - -
08/07:30am 16.9 N 8 15 997.5 - 4.6 - - - - - - -
08/07:00am 17.3 N 8 17 998.3 - 3.2 - - - - - - -
08/06:30am 18.0 NNW 9 21 999.2 - 1.8 - - - - - - -
08/06:00am 15.3 NNW 4 6 998.4 - 0.8 Recent precip. - - - - - -
08/05:30am 14.5 N 3 5 998.2 - 0.4 - - - - - - -
08/05:00am 15.4 NNE 3 4 997.6 - 0.0 - - - - - - -
08/04:30am 15.8 NNE 4 7 997.6 - 0.0 - - - - - - -
08/04:00am 16.1 NNE 5 9 998.0 - 0.0 - - - - - - -
08/03:30am 16.2 NE 6 11 998.5 - 0.0 - - - - - - -
08/03:00am 16.0 NNE 6 10 999.5 - 0.0 - - - - - - -
08/02:30am 15.8 NE 8 13 999.9 - 0.0 - - - - - - -
08/02:00am 15.6 NNE 8 15 1001.3 - 0.0 - - - - - - -
08/01:30am 15.8 NE 7 14 1002.1 - 0.0 - - - - - - -
08/01:00am 15.8 NE 7 12 1002.9 - 0.0 - - - - - - -
08/12:30am 16.1 NE 7 13 1003.8 - 0.0 - - - - - - -
08/12:00am 16.6 NE 8 16 1004.7 - 0.0 - - - - - - -
 
Date/Time
EDT
Temp
°C
Wind Pressure Rain since
9am
mm
Weather Cloud Vis
km
Sea
Height
m
Swell
Dir  Spd
kts
Gust
kts
hPa Trend Height
m
Period
s
Dir
07/11:30pm 17.0 NE 8 14 1005.2 - 0.0 - - - - - - -
07/11:00pm 17.5 NE 8 14 1005.4 - 0.0 - - - - - - -
07/10:30pm 17.4 NE 4 9 1006.0 - 0.0 - - - - - - -
07/10:00pm 16.0 E 3 5 1006.8 - 0.0 - - - - - - -
07/09:30pm 14.9 SE 1 3 1007.1 - 0.0 - - - - - - -
07/09:00pm 16.8 CALM 0 1 1007.6 - 0.0 - - - - - - -
07/08:30pm 18.2 SE 2 4 1007.8 - 0.0 - - - - - - -
07/08:00pm 19.0 ESE 5 9 1008.1 - 0.0 - - - - - - -
07/07:30pm 19.3 ESE 7 11 1008.3 - 0.0 - - - - - - -
07/07:00pm 19.8 SE 7 11 1008.7 - 0.0 - - - - - - -
07/06:30pm 20.1 SSE 7 10 1009.0 - 0.0 - - - - - - -
07/06:00pm 21.0 SE 6 9 1009.4 - 0.0 - - - - - - -
07/05:30pm 21.6 SE 5 9 1009.7 - 0.0 - - - - - - -
07/05:00pm 21.4 ESE 7 10 1010.4 - 0.0 - - - - - - -
07/04:30pm 21.3 ESE 7 11 1010.9 - 0.0 - - - - - - -
07/04:00pm 20.5 SW 8 12 1011.5 - 0.0 - - - - - - -
07/03:30pm 20.6 SSW 8 12 1012.0 - 0.0 - - - - - - -
07/03:00pm 20.4 SSW 7 10 1012.6 - 0.0 - - - - - - -
07/02:30pm 20.2 SW 9 13 1012.8 - 0.0 - - - - - - -
07/02:00pm 22.0 NE 7 12 1012.9 - 0.0 - - - - - - -
07/01:30pm 21.0 NNE 7 11 1013.3 - 0.0 - - - - - - -
07/01:00pm 20.9 E 6 10 1013.9 - 0.0 - - - - - - -
07/12:30pm 20.5 NE 4 10 1014.3 - 0.0 - - - - - - -
07/12:00pm 20.0 ESE 3 7 1014.6 - 0.0 - - - - - - -
07/11:30am 19.1 ESE 4 7 1014.8 - 0.0 - - - - - - -
07/11:00am 18.6 NNE 4 6 1015.2 - 0.0 - - - - - - -
07/10:30am 17.8 ENE 5 9 1015.3 - 0.0 - - - - - - -
07/10:00am 16.8 NNE 5 8 1015.3 - 0.0 - - - - - - -
07/09:30am 15.8 ENE 6 9 1015.4 - 0.0 - - - - - - -
07/09:00am 16.2 NNE 4 7 1015.4 - 0.0 - - - - - - -
07/08:30am 15.1 NNE 4 7 1015.5 - 0.0 - - - - - - -
07/08:00am 14.0 NNE 3 5 1015.7 - 0.0 - - - - - - -
07/07:30am 12.1 ENE 2 4 1015.4 - 0.0 - - - - - - -
07/07:00am 10.3 CALM 0 0 1015.6 - 0.0 - - - - - - -
07/06:30am 7.0 N 2 3 1015.4 - 0.0 - - - - - - -
07/06:00am 6.6 N 2 3 1015.2 - 0.0 - - - - - - -
07/05:30am 6.4 CALM 0 0 1014.9 - 0.0 - - - - - - -
07/05:00am 6.8 CALM 0 0 1014.6 - 0.0 - - - - - - -
07/04:30am 6.7 CALM 0 1 1014.3 - 0.0 - - - - - - -
07/04:00am 6.5 N 1 1 1014.2 - 0.0 - - - - - - -
07/03:30am 7.0 CALM 0 0 1014.3 - 0.0 - - - - - - -
07/03:00am 7.1 CALM 0 0 1014.6 - 0.0 - - - - - - -
07/02:30am 7.2 CALM 0 0 1014.9 - 0.0 - - - - - - -
07/02:00am 7.0 CALM 0 0 1015.2 - 0.0 - - - - - - -
07/01:30am 7.8 CALM 0 0 1015.4 - 0.0 - - - - - - -
07/01:00am 7.7 N 2 3 1015.4 - 0.0 - - - - - - -
07/12:30am 8.7 N 1 1 1015.7 - 0.0 - - - - - - -
07/12:00am 8.9 N 1 2 1015.8 - 0.0 - - - - - - -
 
Date/Time
EDT
Temp
°C
Wind Pressure Rain since
9am
mm
Weather Cloud Vis
km
Sea
Height
m
Swell
Dir  Spd
kts
Gust
kts
hPa Trend Height
m
Period
s
Dir
06/11:30pm 9.6 SSW 3 4 1015.8 - 0.0 - - - - - - -
06/11:00pm 9.3 SSW 2 3 1015.8 - 0.0 - - - - - - -
06/10:30pm 11.7 SSW 3 4 1015.9 - 0.0 - - - - - - -
06/10:00pm 12.6 SSW 4 6 1015.8 - 0.0 - - - - - - -
06/09:30pm 12.9 SSW 4 6 1015.4 - 0.0 - - - - - - -
06/09:00pm 13.2 SSW 3 5 1015.2 - 0.0 - - - - - - -
06/08:30pm 13.8 SSW 5 8 1015.2 - 0.0 - - - - - - -
06/08:00pm 14.8 SSW 7 11 1014.8 - 0.0 - - - - - - -
06/07:30pm 15.5 SSW 7 10 1015.0 - 0.0 - - - - - - -
06/07:00pm 15.8 SSW 8 12 1014.9 - 0.0 - - - - - - -
06/06:30pm 16.5 SSW 9 13 1014.5 - 0.0 - - - - - - -
06/06:00pm 16.7 SSW 10 16 1014.2 - 0.0 - - - - - - -
06/05:30pm 16.7 SSW 11 18 1013.8 - 0.0 - - - - - - -
06/05:00pm 17.4 SSW 10 15 1013.8 - 0.0 - - - - - - -
06/04:30pm 17.1 SSW 10 15 1013.8 - 0.0 - - - - - - -
06/04:00pm 18.1 SSW 8 13 1013.7 - 0.0 - - - - - - -
06/03:30pm 17.1 SSW 12 19 1013.9 - 0.0 - - - - - - -
06/03:00pm 17.6 SSW 11 16 1013.9 - 0.0 - - - - - - -
06/02:30pm 18.2 SSW 12 16 1013.8 - 0.0 - - - - - - -
06/02:00pm 18.1 SSW 10 16 1013.8 - 0.0 - - - - - - -
06/01:30pm 17.8 SSW 9 14 1013.9 - 0.0 - - - - - - -
06/01:00pm 16.8 SSW 9 13 1014.0 - 0.0 - - - - - - -
06/12:30pm 17.0 SSW 8 12 1014.4 - 0.0 - - - - - - -
06/12:00pm 16.4 SSW 8 12 1014.2 - 0.0 - - - - - - -
06/11:30am 17.0 SSW 6 10 1013.9 - 0.0 - - - - - - -
06/11:00am 15.7 S 4 6 1013.8 - 0.0 - - - - - - -
06/10:30am 15.4 S 3 7 1013.8 - 0.0 - - - - - - -
06/10:00am 15.1 SSW 4 8 1014.4 - 0.0 - - - - - - -
06/09:30am 15.0 SW 2 5 1014.7 - 0.0 - - - - - - -
06/09:00am 13.8 SW 1 2 1014.2 - 0.0 - - - - - - -
06/08:30am 13.8 SSW 3 4 1013.9 - 0.0 - - - - - - -
06/08:00am 13.8 SSE 2 4 1014.1 - 0.0 - - - - - - -
06/07:30am 13.7 SE 2 3 1013.6 - 0.0 - - - - - - -
06/07:00am 13.4 SW 3 5 1013.5 - 0.0 - - - - - - -
06/06:30am 13.4 W 3 3 1013.4 - 0.0 - - - - - - -
06/06:00am 13.5 CALM 0 0 1012.9 - 0.0 - - - - - - -
06/05:30am 13.4 N 1 3 1012.6 - 0.0 - - - - - - -
06/05:00am 13.4 CALM 0 0 1012.1 - 0.0 - - - - - - -
06/04:30am 13.4 SE 1 2 1011.6 - 0.0 - - - - - - -
06/04:00am 13.6 SE 2 2 1011.5 - 0.0 - - - - - - -
06/03:30am 13.5 SE 3 4 1011.2 - 0.0 - - - - - - -
06/03:00am 13.4 SSE 2 5 1011.9 - 0.0 - - - - - - -
06/02:30am 13.4 SE 2 3 1012.5 - 0.0 - - - - - - -
06/02:00am 13.4 SE 3 4 1012.7 - 0.0 - - - - - - -
06/01:30am 12.2 CALM 0 2 1012.8 - 0.0 - - - - - - -
06/01:00am 12.2 SSW 2 3 1013.1 - 0.0 - - - - - - -
06/12:30am 12.5 SSW 2 3 1013.3 - 0.0 - - - - - - -
06/12:00am 12.8 SW 2 3 1013.5 - 0.0 - - - - - - -
 
Date/Time
EDT
Temp
°C
Wind Pressure Rain since
9am
mm
Weather Cloud Vis
km
Sea
Height
m
Swell
Dir  Spd
kts
Gust
kts
hPa Trend Height
m
Period
s
Dir
05/11:30pm 13.3 SSW 3 4 1014.5 - 0.0 - - - - - - -
05/11:00pm 13.6 S 5 7 1014.1 - 0.0 - - - - - - -
05/10:30pm 14.1 SSW 6 9 1014.7 - 0.0 - - - - - - -
05/10:00pm 14.2 SSW 4 6 1015.3 - 0.0 - - - - - - -
05/09:30pm 14.2 S 5 11 1014.6 - 0.0 - - - - - - -
05/09:00pm 14.2 SSW 6 9 1014.6 - 0.0 - - - - - - -
05/08:30pm 14.4 S 6 10 1013.7 - 0.0 - - - - - - -
05/08:00pm 14.4 SSW 6 10 1013.8 - 0.0 - - - - - - -
05/07:30pm 14.8 SSW 7 10 1013.9 - 0.0 - - - - - - -
05/07:00pm 15.0 SSW 8 12 1013.6 - 0.0 - - - - - - -
05/06:30pm 15.5 SSW 9 14 1013.2 - 0.0 - - - - - - -
05/06:00pm 15.8 SSW 9 14 1013.0 - 0.0 - - - - - - -
05/05:30pm 16.5 SSW 9 16 1012.5 - 0.0 - - - - - - -
05/05:00pm 16.4 SSW 10 16 1013.1 - 0.0 - - - - - - -
05/04:30pm 17.3 S 10 15 1012.9 - 0.0 - - - - - - -
05/04:00pm 17.6 SSW 9 14 1013.0 - 0.0 - - - - - - -
05/03:30pm 18.4 SSW 8 12 1012.2 - 0.0 - - - - - - -

Other Formats:

Comma delimited format used in spreadsheet applications
http://www.bom.gov.au/fwo/IDV60701/IDV60701.94898.axf

JavaScript Object Notation format (JSON) in row-major order
http://www.bom.gov.au/fwo/IDV60701/IDV60701.94898.json